sensor_id;sensor_type;location;lat;lon;timestamp;temperature;humidity
10905;DHT22;5505;51.450;9.254;2022-09-09T00:02:01;15.00;99.90
10905;DHT22;5505;51.450;9.254;2022-09-09T00:04:57;15.00;99.90
10905;DHT22;5505;51.450;9.254;2022-09-09T00:07:48;15.00;99.90
10905;DHT22;5505;51.450;9.254;2022-09-09T00:10:37;14.90;99.90
10905;DHT22;5505;51.450;9.254;2022-09-09T00:13:31;14.90;99.90
10905;DHT22;5505;51.450;9.254;2022-09-09T00:16:23;14.80;99.90
10905;DHT22;5505;51.450;9.254;2022-09-09T00:19:19;14.80;99.90
10905;DHT22;5505;51.450;9.254;2022-09-09T00:22:15;14.80;99.90
10905;DHT22;5505;51.450;9.254;2022-09-09T00:25:11;14.80;99.90
10905;DHT22;5505;51.450;9.254;2022-09-09T00:27:58;14.80;99.90
10905;DHT22;5505;51.450;9.254;2022-09-09T00:30:46;14.70;99.90
10905;DHT22;5505;51.450;9.254;2022-09-09T00:33:34;14.70;99.90
10905;DHT22;5505;51.450;9.254;2022-09-09T00:36:25;14.70;99.90
10905;DHT22;5505;51.450;9.254;2022-09-09T00:39:27;14.50;99.90
10905;DHT22;5505;51.450;9.254;2022-09-09T00:42:23;14.60;99.90
10905;DHT22;5505;51.450;9.254;2022-09-09T00:45:19;14.60;99.90
10905;DHT22;5505;51.450;9.254;2022-09-09T00:48:13;14.70;99.90
10905;DHT22;5505;51.450;9.254;2022-09-09T00:51:07;14.70;99.90
10905;DHT22;5505;51.450;9.254;2022-09-09T00:54:14;14.70;99.90
10905;DHT22;5505;51.450;9.254;2022-09-09T00:57:14;14.60;99.90
10905;DHT22;5505;51.450;9.254;2022-09-09T01:00:18;14.60;99.90
10905;DHT22;5505;51.450;9.254;2022-09-09T01:03:25;14.70;99.90
10905;DHT22;5505;51.450;9.254;2022-09-09T01:06:22;14.60;99.90
10905;DHT22;5505;51.450;9.254;2022-09-09T01:09:19;14.70;99.90
10905;DHT22;5505;51.450;9.254;2022-09-09T01:12:13;14.60;99.90
10905;DHT22;5505;51.450;9.254;2022-09-09T01:15:08;14.60;99.90
10905;DHT22;5505;51.450;9.254;2022-09-09T01:17:59;14.60;99.90
10905;DHT22;5505;51.450;9.254;2022-09-09T01:20:55;14.60;99.90
10905;DHT22;5505;51.450;9.254;2022-09-09T01:23:59;14.60;99.90
10905;DHT22;5505;51.450;9.254;2022-09-09T01:26:50;14.60;99.90
10905;DHT22;5505;51.450;9.254;2022-09-09T01:29:38;14.60;99.90
10905;DHT22;5505;51.450;9.254;2022-09-09T01:32:41;14.60;99.90
10905;DHT22;5505;51.450;9.254;2022-09-09T01:35:40;14.60;99.90
10905;DHT22;5505;51.450;9.254;2022-09-09T01:38:29;14.60;99.90
10905;DHT22;5505;51.450;9.254;2022-09-09T01:41:17;14.60;99.90
10905;DHT22;5505;51.450;9.254;2022-09-09T01:44:05;14.60;99.90
10905;DHT22;5505;51.450;9.254;2022-09-09T01:46:54;14.60;99.90
10905;DHT22;5505;51.450;9.254;2022-09-09T01:49:41;14.50;99.90
10905;DHT22;5505;51.450;9.254;2022-09-09T01:52:27;14.50;99.90
10905;DHT22;5505;51.450;9.254;2022-09-09T01:55:15;14.50;99.90
10905;DHT22;5505;51.450;9.254;2022-09-09T01:58:17;14.50;99.90
10905;DHT22;5505;51.450;9.254;2022-09-09T02:01:15;14.50;99.90
10905;DHT22;5505;51.450;9.254;2022-09-09T02:04:16;14.40;99.90
10905;DHT22;5505;51.450;9.254;2022-09-09T02:07:11;14.40;99.90
10905;DHT22;5505;51.450;9.254;2022-09-09T02:10:08;14.40;99.90
10905;DHT22;5505;51.450;9.254;2022-09-09T02:13:01;14.40;99.90
10905;DHT22;5505;51.450;9.254;2022-09-09T02:15:53;14.50;99.90
10905;DHT22;5505;51.450;9.254;2022-09-09T02:18:46;14.50;99.90
10905;DHT22;5505;51.450;9.254;2022-09-09T02:21:35;14.50;99.90
10905;DHT22;5505;51.450;9.254;2022-09-09T02:24:22;14.50;99.90
10905;DHT22;5505;51.450;9.254;2022-09-09T02:27:13;14.60;99.90
10905;DHT22;5505;51.450;9.254;2022-09-09T02:30:03;14.60;99.90
10905;DHT22;5505;51.450;9.254;2022-09-09T02:32:52;14.60;99.90
10905;DHT22;5505;51.450;9.254;2022-09-09T02:35:44;14.70;99.90
10905;DHT22;5505;51.450;9.254;2022-09-09T02:38:36;14.70;99.90
10905;DHT22;5505;51.450;9.254;2022-09-09T02:41:30;14.70;99.90
10905;DHT22;5505;51.450;9.254;2022-09-09T02:44:18;14.80;99.90
10905;DHT22;5505;51.450;9.254;2022-09-09T02:47:20;14.80;99.90
10905;DHT22;5505;51.450;9.254;2022-09-09T02:50:13;14.90;99.90
10905;DHT22;5505;51.450;9.254;2022-09-09T02:53:07;14.90;99.90
10905;DHT22;5505;51.450;9.254;2022-09-09T02:55:59;14.90;99.90
10905;DHT22;5505;51.450;9.254;2022-09-09T02:58:49;15.00;99.90
10905;DHT22;5505;51.450;9.254;2022-09-09T03:01:37;14.90;99.90
10905;DHT22;5505;51.450;9.254;2022-09-09T03:04:25;15.10;99.90
10905;DHT22;5505;51.450;9.254;2022-09-09T03:07:12;15.10;99.90
10905;DHT22;5505;51.450;9.254;2022-09-09T03:10:01;15.10;99.90
10905;DHT22;5505;51.450;9.254;2022-09-09T03:12:47;15.10;99.90
10905;DHT22;5505;51.450;9.254;2022-09-09T03:15:36;15.10;99.90
10905;DHT22;5505;51.450;9.254;2022-09-09T03:18:23;15.10;99.90
10905;DHT22;5505;51.450;9.254;2022-09-09T03:21:11;15.20;99.90
10905;DHT22;5505;51.450;9.254;2022-09-09T03:23:57;15.20;99.90
10905;DHT22;5505;51.450;9.254;2022-09-09T03:26:46;16.80;99.90
10905;DHT22;5505;51.450;9.254;2022-09-09T03:29:32;15.30;99.90
10905;DHT22;5505;51.450;9.254;2022-09-09T03:32:21;15.30;99.90
10905;DHT22;5505;51.450;9.254;2022-09-09T03:35:11;15.30;99.90
10905;DHT22;5505;51.450;9.254;2022-09-09T03:37:58;15.20;99.90
10905;DHT22;5505;51.450;9.254;2022-09-09T03:40:50;15.20;99.90
10905;DHT22;5505;51.450;9.254;2022-09-09T03:43:38;15.10;99.90
10905;DHT22;5505;51.450;9.254;2022-09-09T03:46:26;15.10;99.90
10905;DHT22;5505;51.450;9.254;2022-09-09T03:49:13;15.10;99.90
10905;DHT22;5505;51.450;9.254;2022-09-09T03:52:01;15.10;99.90
10905;DHT22;5505;51.450;9.254;2022-09-09T03:54:48;15.10;99.90
10905;DHT22;5505;51.450;9.254;2022-09-09T03:57:35;15.20;99.90
10905;DHT22;5505;51.450;9.254;2022-09-09T04:00:23;15.20;99.90
10905;DHT22;5505;51.450;9.254;2022-09-09T04:03:10;15.20;99.90
10905;DHT22;5505;51.450;9.254;2022-09-09T04:05:59;15.20;99.90
10905;DHT22;5505;51.450;9.254;2022-09-09T04:08:47;15.20;99.90
10905;DHT22;5505;51.450;9.254;2022-09-09T04:11:35;15.20;99.90
10905;DHT22;5505;51.450;9.254;2022-09-09T04:14:22;15.20;99.90
10905;DHT22;5505;51.450;9.254;2022-09-09T04:17:14;15.10;99.90
10905;DHT22;5505;51.450;9.254;2022-09-09T04:20:02;15.20;99.90
10905;DHT22;5505;51.450;9.254;2022-09-09T04:22:49;15.10;99.90
10905;DHT22;5505;51.450;9.254;2022-09-09T04:25:36;15.20;99.90
10905;DHT22;5505;51.450;9.254;2022-09-09T04:28:25;15.20;99.90
10905;DHT22;5505;51.450;9.254;2022-09-09T04:31:15;15.20;99.90
10905;DHT22;5505;51.450;9.254;2022-09-09T04:34:04;15.10;99.90
10905;DHT22;5505;51.450;9.254;2022-09-09T04:36:51;15.10;99.90
10905;DHT22;5505;51.450;9.254;2022-09-09T04:39:38;15.00;99.90
10905;DHT22;5505;51.450;9.254;2022-09-09T04:42:25;15.00;99.90
10905;DHT22;5505;51.450;9.254;2022-09-09T04:45:13;15.00;99.90
10905;DHT22;5505;51.450;9.254;2022-09-09T04:48:00;15.00;99.90
10905;DHT22;5505;51.450;9.254;2022-09-09T04:50:56;15.00;99.90
10905;DHT22;5505;51.450;9.254;2022-09-09T04:53:43;15.00;99.90
10905;DHT22;5505;51.450;9.254;2022-09-09T04:56:30;15.00;99.90
10905;DHT22;5505;51.450;9.254;2022-09-09T04:59:17;15.00;99.90
10905;DHT22;5505;51.450;9.254;2022-09-09T05:02:04;15.00;99.90
10905;DHT22;5505;51.450;9.254;2022-09-09T05:04:51;15.00;99.90
10905;DHT22;5505;51.450;9.254;2022-09-09T05:07:39;15.00;99.90
10905;DHT22;5505;51.450;9.254;2022-09-09T05:10:27;15.10;99.90
10905;DHT22;5505;51.450;9.254;2022-09-09T05:13:14;15.10;99.90
10905;DHT22;5505;51.450;9.254;2022-09-09T05:16:02;15.10;99.90
10905;DHT22;5505;51.450;9.254;2022-09-09T05:18:49;15.10;99.90
10905;DHT22;5505;51.450;9.254;2022-09-09T05:21:37;15.10;99.90
10905;DHT22;5505;51.450;9.254;2022-09-09T05:24:25;15.20;99.90
10905;DHT22;5505;51.450;9.254;2022-09-09T05:27:12;15.20;99.90
10905;DHT22;5505;51.450;9.254;2022-09-09T05:29:59;15.30;99.90
10905;DHT22;5505;51.450;9.254;2022-09-09T05:32:46;15.20;99.90
10905;DHT22;5505;51.450;9.254;2022-09-09T05:35:33;15.20;99.90
10905;DHT22;5505;51.450;9.254;2022-09-09T05:38:20;15.20;99.90
10905;DHT22;5505;51.450;9.254;2022-09-09T05:41:11;15.20;99.90
10905;DHT22;5505;51.450;9.254;2022-09-09T05:44:01;15.30;99.90
10905;DHT22;5505;51.450;9.254;2022-09-09T05:46:49;15.30;99.90
10905;DHT22;5505;51.450;9.254;2022-09-09T05:49:36;15.20;99.90
10905;DHT22;5505;51.450;9.254;2022-09-09T05:52:23;15.20;99.90
10905;DHT22;5505;51.450;9.254;2022-09-09T05:55:11;15.20;99.90
10905;DHT22;5505;51.450;9.254;2022-09-09T05:57:59;15.20;99.90
10905;DHT22;5505;51.450;9.254;2022-09-09T06:00:46;15.30;99.90
10905;DHT22;5505;51.450;9.254;2022-09-09T06:03:35;15.40;99.90
10905;DHT22;5505;51.450;9.254;2022-09-09T06:06:24;15.50;99.90
10905;DHT22;5505;51.450;9.254;2022-09-09T06:09:12;15.60;99.90
10905;DHT22;5505;51.450;9.254;2022-09-09T06:11:59;15.60;99.90
10905;DHT22;5505;51.450;9.254;2022-09-09T06:14:47;15.60;99.90
10905;DHT22;5505;51.450;9.254;2022-09-09T06:17:36;15.60;99.90
10905;DHT22;5505;51.450;9.254;2022-09-09T06:20:24;15.60;99.90
10905;DHT22;5505;51.450;9.254;2022-09-09T06:23:11;15.60;99.90
10905;DHT22;5505;51.450;9.254;2022-09-09T06:26:03;15.60;99.90
10905;DHT22;5505;51.450;9.254;2022-09-09T06:28:53;15.60;99.90
10905;DHT22;5505;51.450;9.254;2022-09-09T06:31:42;15.60;99.90
10905;DHT22;5505;51.450;9.254;2022-09-09T06:34:29;15.70;99.90
10905;DHT22;5505;51.450;9.254;2022-09-09T06:37:16;15.70;99.90
10905;DHT22;5505;51.450;9.254;2022-09-09T06:40:03;15.70;99.90
10905;DHT22;5505;51.450;9.254;2022-09-09T06:42:50;15.70;99.90
10905;DHT22;5505;51.450;9.254;2022-09-09T06:45:37;15.70;99.90
10905;DHT22;5505;51.450;9.254;2022-09-09T06:48:26;15.70;99.90
10905;DHT22;5505;51.450;9.254;2022-09-09T06:51:15;15.80;99.90
10905;DHT22;5505;51.450;9.254;2022-09-09T06:54:03;15.90;99.90
10905;DHT22;5505;51.450;9.254;2022-09-09T06:56:51;16.00;99.90
10905;DHT22;5505;51.450;9.254;2022-09-09T06:59:38;16.10;99.90
10905;DHT22;5505;51.450;9.254;2022-09-09T07:02:25;16.30;99.90
10905;DHT22;5505;51.450;9.254;2022-09-09T07:05:15;16.30;99.90
10905;DHT22;5505;51.450;9.254;2022-09-09T07:08:02;16.50;99.90
10905;DHT22;5505;51.450;9.254;2022-09-09T07:10:49;16.60;99.90
10905;DHT22;5505;51.450;9.254;2022-09-09T07:13:36;16.80;99.90
10905;DHT22;5505;51.450;9.254;2022-09-09T07:16:24;16.90;99.90
10905;DHT22;5505;51.450;9.254;2022-09-09T07:19:11;17.10;99.90
10905;DHT22;5505;51.450;9.254;2022-09-09T07:22:01;17.40;99.90
10905;DHT22;5505;51.450;9.254;2022-09-09T07:24:48;17.60;99.90
10905;DHT22;5505;51.450;9.254;2022-09-09T07:27:35;17.70;99.90
10905;DHT22;5505;51.450;9.254;2022-09-09T07:30:22;17.80;99.90
10905;DHT22;5505;51.450;9.254;2022-09-09T07:33:09;17.70;99.90
10905;DHT22;5505;51.450;9.254;2022-09-09T07:36:04;17.50;99.90
10905;DHT22;5505;51.450;9.254;2022-09-09T07:38:55;17.70;99.90
10905;DHT22;5505;51.450;9.254;2022-09-09T07:41:45;17.90;99.90
10905;DHT22;5505;51.450;9.254;2022-09-09T07:44:32;18.20;99.90
10905;DHT22;5505;51.450;9.254;2022-09-09T07:47:21;18.40;99.90
10905;DHT22;5505;51.450;9.254;2022-09-09T07:50:10;18.50;99.90
10905;DHT22;5505;51.450;9.254;2022-09-09T07:52:57;18.60;99.90
10905;DHT22;5505;51.450;9.254;2022-09-09T07:55:46;18.80;99.90
10905;DHT22;5505;51.450;9.254;2022-09-09T07:58:33;19.00;99.90
10905;DHT22;5505;51.450;9.254;2022-09-09T08:01:23;19.00;99.90
10905;DHT22;5505;51.450;9.254;2022-09-09T08:04:12;19.40;99.90
10905;DHT22;5505;51.450;9.254;2022-09-09T08:07:01;19.30;99.90
10905;DHT22;5505;51.450;9.254;2022-09-09T08:09:49;19.50;99.90
10905;DHT22;5505;51.450;9.254;2022-09-09T08:12:37;19.50;99.90
10905;DHT22;5505;51.450;9.254;2022-09-09T08:15:24;19.30;99.90
10905;DHT22;5505;51.450;9.254;2022-09-09T08:18:11;19.20;99.90
10905;DHT22;5505;51.450;9.254;2022-09-09T08:20:57;18.90;99.90
10905;DHT22;5505;51.450;9.254;2022-09-09T08:23:47;18.90;99.90
10905;DHT22;5505;51.450;9.254;2022-09-09T08:26:36;18.80;99.90
10905;DHT22;5505;51.450;9.254;2022-09-09T08:29:25;18.70;99.90
10905;DHT22;5505;51.450;9.254;2022-09-09T08:32:13;18.70;99.90
10905;DHT22;5505;51.450;9.254;2022-09-09T08:35:00;18.70;99.90
10905;DHT22;5505;51.450;9.254;2022-09-09T08:37:46;18.70;99.90
10905;DHT22;5505;51.450;9.254;2022-09-09T08:40:35;18.70;99.90
10905;DHT22;5505;51.450;9.254;2022-09-09T08:43:26;18.80;99.90
10905;DHT22;5505;51.450;9.254;2022-09-09T08:46:21;19.00;99.90
10905;DHT22;5505;51.450;9.254;2022-09-09T08:49:21;20.80;99.90
10905;DHT22;5505;51.450;9.254;2022-09-09T08:52:15;19.30;99.90
10905;DHT22;5505;51.450;9.254;2022-09-09T08:55:13;19.40;99.90
10905;DHT22;5505;51.450;9.254;2022-09-09T08:58:09;19.60;99.90
10905;DHT22;5505;51.450;9.254;2022-09-09T09:01:12;19.60;99.90
10905;DHT22;5505;51.450;9.254;2022-09-09T09:04:10;19.50;99.90
10905;DHT22;5505;51.450;9.254;2022-09-09T09:07:06;19.40;99.90
10905;DHT22;5505;51.450;9.254;2022-09-09T09:10:01;19.50;99.90
10905;DHT22;5505;51.450;9.254;2022-09-09T09:12:48;19.50;99.90
10905;DHT22;5505;51.450;9.254;2022-09-09T09:15:37;19.50;99.90
10905;DHT22;5505;51.450;9.254;2022-09-09T09:18:24;19.50;99.90
10905;DHT22;5505;51.450;9.254;2022-09-09T09:21:16;19.50;99.90
10905;DHT22;5505;51.450;9.254;2022-09-09T09:24:15;19.60;99.90
10905;DHT22;5505;51.450;9.254;2022-09-09T09:27:12;19.70;99.90
10905;DHT22;5505;51.450;9.254;2022-09-09T09:30:01;19.60;99.90
10905;DHT22;5505;51.450;9.254;2022-09-09T09:32:52;19.50;99.90
10905;DHT22;5505;51.450;9.254;2022-09-09T09:35:40;19.50;99.90
10905;DHT22;5505;51.450;9.254;2022-09-09T09:38:29;19.50;99.90
10905;DHT22;5505;51.450;9.254;2022-09-09T09:41:16;19.50;99.90
10905;DHT22;5505;51.450;9.254;2022-09-09T09:44:03;19.40;99.90
10905;DHT22;5505;51.450;9.254;2022-09-09T09:46:51;19.40;99.90
10905;DHT22;5505;51.450;9.254;2022-09-09T09:49:39;19.50;99.90
10905;DHT22;5505;51.450;9.254;2022-09-09T09:52:27;19.90;99.90
10905;DHT22;5505;51.450;9.254;2022-09-09T09:55:16;20.10;99.90
10905;DHT22;5505;51.450;9.254;2022-09-09T09:58:05;20.30;99.90
10905;DHT22;5505;51.450;9.254;2022-09-09T10:00:53;20.50;99.90
10905;DHT22;5505;51.450;9.254;2022-09-09T10:03:50;20.60;99.90
10905;DHT22;5505;51.450;9.254;2022-09-09T10:06:37;20.70;99.90
10905;DHT22;5505;51.450;9.254;2022-09-09T10:09:26;20.70;99.90
10905;DHT22;5505;51.450;9.254;2022-09-09T10:12:24;20.50;99.90
10905;DHT22;5505;51.450;9.254;2022-09-09T10:15:28;20.30;99.90
10905;DHT22;5505;51.450;9.254;2022-09-09T10:18:32;20.10;99.90
10905;DHT22;5505;51.450;9.254;2022-09-09T10:21:40;20.10;99.90
10905;DHT22;5505;51.450;9.254;2022-09-09T10:24:49;20.20;99.90
10905;DHT22;5505;51.450;9.254;2022-09-09T10:27:52;20.10;99.90
10905;DHT22;5505;51.450;9.254;2022-09-09T10:30:50;19.90;99.90
10905;DHT22;5505;51.450;9.254;2022-09-09T10:33:47;19.80;99.90
10905;DHT22;5505;51.450;9.254;2022-09-09T10:36:40;19.80;99.90
10905;DHT22;5505;51.450;9.254;2022-09-09T10:39:35;19.90;99.90
10905;DHT22;5505;51.450;9.254;2022-09-09T10:42:27;20.10;99.90
10905;DHT22;5505;51.450;9.254;2022-09-09T10:45:21;20.30;99.90
10905;DHT22;5505;51.450;9.254;2022-09-09T10:48:31;20.30;99.90
10905;DHT22;5505;51.450;9.254;2022-09-09T10:51:25;20.30;99.90
10905;DHT22;5505;51.450;9.254;2022-09-09T10:54:31;20.20;99.90
10905;DHT22;5505;51.450;9.254;2022-09-09T10:57:27;19.90;99.90
10905;DHT22;5505;51.450;9.254;2022-09-09T11:00:19;19.90;99.90
10905;DHT22;5505;51.450;9.254;2022-09-09T11:03:09;19.90;99.90
10905;DHT22;5505;51.450;9.254;2022-09-09T11:06:04;19.90;99.90
10905;DHT22;5505;51.450;9.254;2022-09-09T11:08:52;20.10;99.90
10905;DHT22;5505;51.450;9.254;2022-09-09T11:11:43;20.30;99.90
10905;DHT22;5505;51.450;9.254;2022-09-09T11:14:36;20.30;99.90
10905;DHT22;5505;51.450;9.254;2022-09-09T11:17:28;20.10;99.90
10905;DHT22;5505;51.450;9.254;2022-09-09T11:20:19;20.00;99.90
10905;DHT22;5505;51.450;9.254;2022-09-09T11:23:11;20.00;99.90
10905;DHT22;5505;51.450;9.254;2022-09-09T11:26:01;20.00;99.90
10905;DHT22;5505;51.450;9.254;2022-09-09T11:28:58;20.00;99.90
10905;DHT22;5505;51.450;9.254;2022-09-09T11:31:58;20.00;99.90
10905;DHT22;5505;51.450;9.254;2022-09-09T11:34:54;20.10;99.90
10905;DHT22;5505;51.450;9.254;2022-09-09T11:37:53;20.20;99.90
10905;DHT22;5505;51.450;9.254;2022-09-09T11:40:45;20.30;99.90
10905;DHT22;5505;51.450;9.254;2022-09-09T11:43:39;20.50;99.90
10905;DHT22;5505;51.450;9.254;2022-09-09T11:46:34;20.60;99.90
10905;DHT22;5505;51.450;9.254;2022-09-09T11:49:27;20.60;99.90
10905;DHT22;5505;51.450;9.254;2022-09-09T11:52:23;20.80;99.90
10905;DHT22;5505;51.450;9.254;2022-09-09T11:55:23;20.90;99.90
10905;DHT22;5505;51.450;9.254;2022-09-09T11:58:17;20.80;99.90
10905;DHT22;5505;51.450;9.254;2022-09-09T12:01:26;20.80;99.90
10905;DHT22;5505;51.450;9.254;2022-09-09T12:04:32;20.70;99.90
10905;DHT22;5505;51.450;9.254;2022-09-09T12:07:33;20.60;99.90
10905;DHT22;5505;51.450;9.254;2022-09-09T12:10:25;20.70;99.90
10905;DHT22;5505;51.450;9.254;2022-09-09T12:13:18;20.90;99.90
10905;DHT22;5505;51.450;9.254;2022-09-09T12:16:28;21.00;99.90
10905;DHT22;5505;51.450;9.254;2022-09-09T12:19:19;20.90;99.90
10905;DHT22;5505;51.450;9.254;2022-09-09T12:22:12;21.00;99.90
10905;DHT22;5505;51.450;9.254;2022-09-09T12:25:09;21.10;99.90
10905;DHT22;5505;51.450;9.254;2022-09-09T12:28:05;21.10;99.90
10905;DHT22;5505;51.450;9.254;2022-09-09T12:31:00;21.20;99.90
10905;DHT22;5505;51.450;9.254;2022-09-09T12:33:52;21.30;99.90
10905;DHT22;5505;51.450;9.254;2022-09-09T12:36:40;21.30;99.90
10905;DHT22;5505;51.450;9.254;2022-09-09T12:39:31;21.30;99.90
10905;DHT22;5505;51.450;9.254;2022-09-09T12:42:22;21.40;99.90
10905;DHT22;5505;51.450;9.254;2022-09-09T12:45:16;21.10;99.90
10905;DHT22;5505;51.450;9.254;2022-09-09T12:48:05;20.90;99.90
10905;DHT22;5505;51.450;9.254;2022-09-09T12:50:53;20.80;99.90
10905;DHT22;5505;51.450;9.254;2022-09-09T12:53:41;20.70;99.90
10905;DHT22;5505;51.450;9.254;2022-09-09T12:56:30;20.80;99.90
10905;DHT22;5505;51.450;9.254;2022-09-09T12:59:24;20.80;99.90
10905;DHT22;5505;51.450;9.254;2022-09-09T13:02:18;20.70;99.90
10905;DHT22;5505;51.450;9.254;2022-09-09T13:05:16;20.70;99.90
10905;DHT22;5505;51.450;9.254;2022-09-09T13:08:05;20.90;99.90
10905;DHT22;5505;51.450;9.254;2022-09-09T13:10:55;21.00;99.90
10905;DHT22;5505;51.450;9.254;2022-09-09T13:13:50;20.10;99.90
10905;DHT22;5505;51.450;9.254;2022-09-09T13:16:39;21.00;99.90
10905;DHT22;5505;51.450;9.254;2022-09-09T13:19:29;21.60;99.90
10905;DHT22;5505;51.450;9.254;2022-09-09T13:22:21;20.80;99.90
10905;DHT22;5505;51.450;9.254;2022-09-09T13:25:19;20.60;99.90
10905;DHT22;5505;51.450;9.254;2022-09-09T13:28:20;20.50;99.90
10905;DHT22;5505;51.450;9.254;2022-09-09T13:31:20;20.50;99.90
10905;DHT22;5505;51.450;9.254;2022-09-09T13:34:12;20.40;99.90
10905;DHT22;5505;51.450;9.254;2022-09-09T13:37:02;20.40;99.90
10905;DHT22;5505;51.450;9.254;2022-09-09T13:39:51;20.30;99.90
10905;DHT22;5505;51.450;9.254;2022-09-09T13:42:41;20.30;99.90
10905;DHT22;5505;51.450;9.254;2022-09-09T13:45:28;20.30;99.90
10905;DHT22;5505;51.450;9.254;2022-09-09T13:48:18;20.40;99.90
10905;DHT22;5505;51.450;9.254;2022-09-09T13:51:28;20.50;99.90
10905;DHT22;5505;51.450;9.254;2022-09-09T13:54:17;20.60;99.90
10905;DHT22;5505;51.450;9.254;2022-09-09T13:57:05;20.90;99.90
10905;DHT22;5505;51.450;9.254;2022-09-09T13:59:53;20.90;99.90
10905;DHT22;5505;51.450;9.254;2022-09-09T14:02:41;21.00;99.90
10905;DHT22;5505;51.450;9.254;2022-09-09T14:05:32;21.00;99.90
10905;DHT22;5505;51.450;9.254;2022-09-09T14:08:24;20.90;99.90
10905;DHT22;5505;51.450;9.254;2022-09-09T14:11:12;20.90;99.90
10905;DHT22;5505;51.450;9.254;2022-09-09T14:13:59;20.80;99.90
10905;DHT22;5505;51.450;9.254;2022-09-09T14:16:47;20.70;99.90
10905;DHT22;5505;51.450;9.254;2022-09-09T14:19:34;20.70;99.90
10905;DHT22;5505;51.450;9.254;2022-09-09T14:22:20;20.90;99.90
10905;DHT22;5505;51.450;9.254;2022-09-09T14:25:09;21.00;99.90
10905;DHT22;5505;51.450;9.254;2022-09-09T14:27:56;21.00;99.90
10905;DHT22;5505;51.450;9.254;2022-09-09T14:30:44;20.90;99.90
10905;DHT22;5505;51.450;9.254;2022-09-09T14:33:31;20.70;99.90
10905;DHT22;5505;51.450;9.254;2022-09-09T14:36:18;20.50;99.90
10905;DHT22;5505;51.450;9.254;2022-09-09T14:39:05;20.70;99.90
10905;DHT22;5505;51.450;9.254;2022-09-09T14:41:53;20.80;99.90
10905;DHT22;5505;51.450;9.254;2022-09-09T14:44:40;20.80;99.90
10905;DHT22;5505;51.450;9.254;2022-09-09T14:47:27;20.80;99.90
10905;DHT22;5505;51.450;9.254;2022-09-09T14:50:14;20.60;99.90
10905;DHT22;5505;51.450;9.254;2022-09-09T14:53:01;20.50;99.90
10905;DHT22;5505;51.450;9.254;2022-09-09T14:55:48;20.50;99.90
10905;DHT22;5505;51.450;9.254;2022-09-09T14:58:37;20.50;99.90
10905;DHT22;5505;51.450;9.254;2022-09-09T15:01:25;20.40;99.90
10905;DHT22;5505;51.450;9.254;2022-09-09T15:04:13;20.30;99.90
10905;DHT22;5505;51.450;9.254;2022-09-09T15:07:00;20.40;99.90
10905;DHT22;5505;51.450;9.254;2022-09-09T15:09:48;21.00;99.90
10905;DHT22;5505;51.450;9.254;2022-09-09T15:12:35;20.70;99.90
10905;DHT22;5505;51.450;9.254;2022-09-09T15:15:23;20.90;99.90
10905;DHT22;5505;51.450;9.254;2022-09-09T15:18:10;21.00;99.90
10905;DHT22;5505;51.450;9.254;2022-09-09T15:20:58;21.10;99.90
10905;DHT22;5505;51.450;9.254;2022-09-09T15:23:46;21.10;99.90
10905;DHT22;5505;51.450;9.254;2022-09-09T15:26:33;20.90;99.90
10905;DHT22;5505;51.450;9.254;2022-09-09T15:29:20;20.70;99.90
10905;DHT22;5505;51.450;9.254;2022-09-09T15:32:09;20.60;99.90
10905;DHT22;5505;51.450;9.254;2022-09-09T15:34:56;20.50;99.90
10905;DHT22;5505;51.450;9.254;2022-09-09T15:37:43;20.60;99.90
10905;DHT22;5505;51.450;9.254;2022-09-09T15:40:30;20.60;99.90
10905;DHT22;5505;51.450;9.254;2022-09-09T15:43:17;20.50;99.90
10905;DHT22;5505;51.450;9.254;2022-09-09T15:46:24;20.50;99.90
10905;DHT22;5505;51.450;9.254;2022-09-09T15:49:15;20.40;99.90
10905;DHT22;5505;51.450;9.254;2022-09-09T15:52:03;20.50;99.90
10905;DHT22;5505;51.450;9.254;2022-09-09T15:54:50;20.30;99.90
10905;DHT22;5505;51.450;9.254;2022-09-09T15:57:37;20.30;99.90
10905;DHT22;5505;51.450;9.254;2022-09-09T16:00:24;20.10;99.90
10905;DHT22;5505;51.450;9.254;2022-09-09T16:03:11;20.00;99.90
10905;DHT22;5505;51.450;9.254;2022-09-09T16:05:59;19.00;99.90
10905;DHT22;5505;51.450;9.254;2022-09-09T16:08:47;20.10;99.90
10905;DHT22;5505;51.450;9.254;2022-09-09T16:11:37;20.10;99.90
10905;DHT22;5505;51.450;9.254;2022-09-09T16:14:24;19.90;99.90
10905;DHT22;5505;51.450;9.254;2022-09-09T16:17:12;20.00;99.90
10905;DHT22;5505;51.450;9.254;2022-09-09T16:19:59;19.80;99.90
10905;DHT22;5505;51.450;9.254;2022-09-09T16:22:48;19.70;99.90
10905;DHT22;5505;51.450;9.254;2022-09-09T16:25:34;19.70;99.90
10905;DHT22;5505;51.450;9.254;2022-09-09T16:28:21;19.70;99.90
10905;DHT22;5505;51.450;9.254;2022-09-09T16:31:11;19.70;99.90
10905;DHT22;5505;51.450;9.254;2022-09-09T16:33:59;19.70;99.90
10905;DHT22;5505;51.450;9.254;2022-09-09T16:36:47;19.80;99.90
10905;DHT22;5505;51.450;9.254;2022-09-09T16:39:36;19.80;99.90
10905;DHT22;5505;51.450;9.254;2022-09-09T16:42:24;19.90;99.90
10905;DHT22;5505;51.450;9.254;2022-09-09T16:45:11;19.80;99.90
10905;DHT22;5505;51.450;9.254;2022-09-09T16:47:59;19.80;99.90
10905;DHT22;5505;51.450;9.254;2022-09-09T16:50:46;19.70;99.90
10905;DHT22;5505;51.450;9.254;2022-09-09T16:53:34;19.60;99.90
10905;DHT22;5505;51.450;9.254;2022-09-09T16:56:24;19.60;99.90
10905;DHT22;5505;51.450;9.254;2022-09-09T16:59:12;19.50;99.90
10905;DHT22;5505;51.450;9.254;2022-09-09T17:01:59;19.50;99.90
10905;DHT22;5505;51.450;9.254;2022-09-09T17:04:50;19.40;99.90
10905;DHT22;5505;51.450;9.254;2022-09-09T17:07:37;19.40;99.90
10905;DHT22;5505;51.450;9.254;2022-09-09T17:10:24;19.30;99.90
10905;DHT22;5505;51.450;9.254;2022-09-09T17:13:13;19.30;99.90
10905;DHT22;5505;51.450;9.254;2022-09-09T17:16:03;19.20;99.90
10905;DHT22;5505;51.450;9.254;2022-09-09T17:18:51;19.30;99.90
10905;DHT22;5505;51.450;9.254;2022-09-09T17:21:38;19.30;99.90
10905;DHT22;5505;51.450;9.254;2022-09-09T17:24:26;19.30;99.90
10905;DHT22;5505;51.450;9.254;2022-09-09T17:27:14;19.20;99.90
10905;DHT22;5505;51.450;9.254;2022-09-09T17:30:03;19.20;99.90
10905;DHT22;5505;51.450;9.254;2022-09-09T17:32:50;19.20;99.90
10905;DHT22;5505;51.450;9.254;2022-09-09T17:35:36;19.20;99.90
10905;DHT22;5505;51.450;9.254;2022-09-09T17:38:24;19.00;99.90
10905;DHT22;5505;51.450;9.254;2022-09-09T17:41:13;18.80;99.90
10905;DHT22;5505;51.450;9.254;2022-09-09T17:44:00;18.70;99.90
10905;DHT22;5505;51.450;9.254;2022-09-09T17:46:49;18.60;99.90
10905;DHT22;5505;51.450;9.254;2022-09-09T17:49:35;18.50;99.90
10905;DHT22;5505;51.450;9.254;2022-09-09T17:52:23;18.30;99.90
10905;DHT22;5505;51.450;9.254;2022-09-09T17:55:10;18.10;99.90
10905;DHT22;5505;51.450;9.254;2022-09-09T17:57:57;17.90;99.90
10905;DHT22;5505;51.450;9.254;2022-09-09T18:00:44;17.80;99.90
10905;DHT22;5505;51.450;9.254;2022-09-09T18:03:34;17.70;99.90
10905;DHT22;5505;51.450;9.254;2022-09-09T18:06:24;17.60;99.90
10905;DHT22;5505;51.450;9.254;2022-09-09T18:09:14;17.40;99.90
10905;DHT22;5505;51.450;9.254;2022-09-09T18:12:01;17.20;99.90
10905;DHT22;5505;51.450;9.254;2022-09-09T18:14:48;17.20;99.90